Chippenham, United Kingdom
Current Conditions -  °F | °C
As of 8:58 PM on Saturday 22 Nov 2014 (Local Time) from EGVA Reporting Station
Moderate Fog Moderate Fog  
Wind Chill: 46°   Ceiling: 18000
Heat Index: 46°   Visibility: 0.25mi
Dew Point: 46°   Wind: 0mph
Humidity: 100%   Direction: NA
Pressure: 29.96"   Gusts: NA
Location:  51.46°N, 2.12°W
Report Text: EGVA 222058Z AUTO 00000KT 0400 R27/0300 FG FEW120 OVC180 08/08 A2996 RMK AO2 SLP150 52013 $
Loading
Personal Weather Stations






























Interactive Weather Map New forecast layout! Learn more

10-Day Weather Forecast

Advertisements
Track Severe Weather on mobile